Terminal Aerodrome Forecast
Issued by NWS Louisville, KY

Home | Current Version | Previous Version | Text Only | Print | Product List | Glossary On
Versions: 1 2 3 4 5 6 7 8 9 10 11 12 13 14 15 16 17 18 19 20 21 22
000
FTUS43 KLMK 161400 AAA
TAFSDF
TAF AMD
KSDF 161435Z 1615/1718 27012G20KT 4SM -SHRA BR SCT009 OVC015
      TEMPO 1615/1618 2SM SHRA BR OVC009
     FM170100 27010KT P6SM BKN021
     FM170900 28008KT P6SM BKN015=

USA.gov is the U.S. government's official web portal to all federal, state and local government web resources and services.